createdAt,value
2019-02-02T00:01:14.318Z,95515.95
2019-02-02T00:03:41.091Z,95517.03
2019-02-02T00:06:08.298Z,95511.08
2019-02-02T00:08:35.150Z,95511.20
2019-02-02T00:11:01.986Z,95514.57
2019-02-02T00:13:29.124Z,95515.02
2019-02-02T00:15:55.750Z,95514.42
2019-02-02T00:18:22.435Z,95505.77
2019-02-02T00:20:49.544Z,95510.65
2019-02-02T00:23:16.843Z,95509.27
2019-02-02T00:25:43.434Z,95507.02
2019-02-02T00:28:10.430Z,95506.21
2019-02-02T00:30:37.078Z,95502.72
2019-02-02T00:33:03.709Z,95499.66
2019-02-02T00:35:30.759Z,95503.83
2019-02-02T00:37:57.408Z,95512.83
2019-02-02T00:40:24.097Z,95500.97
2019-02-02T00:42:50.849Z,95506.36
2019-02-02T00:45:17.803Z,95514.42
2019-02-02T00:47:44.631Z,95515.09
2019-02-02T00:50:11.272Z,95512.31
2019-02-02T00:52:38.142Z,95514.94
2019-02-02T00:55:05.071Z,95515.65
2019-02-02T00:57:32.138Z,95514.21
2019-02-02T00:59:59.405Z,95509.91
2019-02-02T01:02:26.770Z,95508.98
2019-02-02T01:04:53.499Z,95504.31
2019-02-02T01:07:20.200Z,95508.05
2019-02-02T01:09:47.002Z,95512.77
2019-02-02T01:12:13.757Z,95506.67
2019-02-02T01:14:41.740Z,95504.92
2019-02-02T01:17:08.667Z,95507.34
2019-02-02T01:19:35.327Z,95500.30
2019-02-02T01:22:02.103Z,95501.48
2019-02-02T01:24:28.763Z,95499.50
2019-02-02T01:26:55.624Z,95492.80
2019-02-02T01:29:22.743Z,95500.81
2019-02-02T01:31:49.575Z,95503.27
2019-02-02T01:34:16.821Z,95505.68
2019-02-02T01:36:43.717Z,95500.61
2019-02-02T01:39:12.166Z,95495.84
2019-02-02T01:41:39.903Z,95493.80
2019-02-02T01:44:06.882Z,95491.30
2019-02-02T01:46:33.531Z,95491.19
2019-02-02T01:49:00.306Z,95483.25
2019-02-02T01:51:27.297Z,95480.13
2019-02-02T01:53:54.291Z,95478.55
2019-02-02T01:56:20.954Z,95473.53
2019-02-02T01:58:47.915Z,95479.21
2019-02-02T02:01:14.748Z,95476.83
2019-02-02T02:03:42.723Z,95475.52
2019-02-02T02:06:09.465Z,95483.81
2019-02-02T02:08:36.130Z,95484.41
2019-02-02T02:11:02.765Z,95481.98
2019-02-02T02:13:29.487Z,95473.70
2019-02-02T02:15:56.491Z,95481.99
2019-02-02T02:18:23.201Z,95481.78
2019-02-02T02:20:49.802Z,95470.24
2019-02-02T02:23:16.433Z,95465.81
2019-02-02T02:25:44.384Z,95470.80
2019-02-02T02:28:11.138Z,95467.23
2019-02-02T02:30:37.745Z,95473.66
2019-02-02T02:33:04.445Z,95472.63
2019-02-02T02:35:31.420Z,95475.09
2019-02-02T02:37:58.772Z,95476.98
2019-02-02T02:48:34.378Z,95478.12
2019-02-02T02:51:01.912Z,95487.99
2019-02-02T02:53:29.531Z,95481.19
2019-02-02T02:55:56.462Z,95481.03
2019-02-02T02:58:23.388Z,95486.33
2019-02-02T03:00:51.948Z,95480.59
2019-02-02T03:03:20.099Z,95488.45
2019-02-02T03:39:04.168Z,95497.06
2019-02-02T03:41:31.744Z,95488.34
2019-02-02T03:43:59.471Z,95482.85
2019-02-02T03:46:27.145Z,95496.02
2019-02-02T03:48:53.851Z,95492.36
2019-02-02T03:51:21.723Z,95493.31
2019-02-02T03:53:49.333Z,95490.96
2019-02-02T03:56:17.531Z,95496.20
2019-02-02T03:58:46.252Z,95487.49
2019-02-02T04:01:12.969Z,95488.05
2019-02-02T04:03:41.085Z,95496.18
2019-02-02T04:06:08.582Z,95507.23
2019-02-02T04:08:36.105Z,95502.08
2019-02-02T04:11:03.605Z,95495.31
2019-02-02T04:13:31.047Z,95493.68
2019-02-02T04:15:59.167Z,95488.70
2019-02-02T04:18:26.867Z,95492.62
2019-02-02T04:20:53.651Z,95488.86
2019-02-02T04:23:21.279Z,95503.97
2019-02-02T04:25:48.159Z,95501.09
2019-02-02T04:28:16.516Z,95499.52
2019-02-02T04:30:43.242Z,95497.64
2019-02-02T04:33:10.318Z,95510.88
2019-02-02T04:35:37.277Z,95509.11
2019-02-02T04:38:03.888Z,95504.63
2019-02-02T04:40:33.048Z,95507.95
2019-02-02T04:43:01.772Z,95504.98
2019-02-02T04:45:28.847Z,95511.37
2019-02-02T04:47:55.802Z,95510.85
2019-02-02T04:50:22.479Z,95504.78
2019-02-02T04:52:49.480Z,95503.83
2019-02-02T04:55:23.256Z,95506.36
2019-02-02T04:57:52.266Z,95499.66
2019-02-02T05:00:18.903Z,95505.77
2019-02-02T05:02:50.706Z,95505.77
2019-02-02T05:05:17.295Z,95501.72
2019-02-02T05:07:46.366Z,95514.28
2019-02-02T05:10:13.029Z,95516.31
2019-02-02T05:12:39.910Z,95506.80
2019-02-02T05:15:08.800Z,95510.38
2019-02-02T05:17:36.553Z,95504.47
2019-02-02T05:22:51.075Z,95502.23
2019-02-02T05:25:18.900Z,95494.43
2019-02-02T05:28:02.895Z,95495.46
2019-02-02T05:30:30.619Z,95504.39
2019-02-02T05:32:59.557Z,95496.18
2019-02-02T05:35:30.792Z,95501.48
2019-02-02T05:37:58.781Z,95502.08
2019-02-02T05:40:28.847Z,95498.00
2019-02-02T05:43:00.660Z,95504.34
2019-02-02T05:45:27.636Z,95507.00
2019-02-02T05:47:57.188Z,95491.54
2019-02-02T05:50:24.941Z,95498.00
2019-02-02T05:52:52.693Z,95505.13
2019-02-02T05:55:22.366Z,95482.38
2019-02-02T05:57:52.014Z,95509.19
2019-02-02T06:00:18.937Z,95528.99
2019-02-02T06:02:45.653Z,95486.42
2019-02-02T06:08:00.215Z,95532.05
2019-02-02T06:10:29.884Z,95503.08
2019-02-02T06:13:02.527Z,95513.98
2019-02-02T06:15:33.588Z,95502.84
2019-02-02T06:18:02.965Z,95511.67
2019-02-02T06:23:19.179Z,95506.80
2019-02-02T06:25:52.627Z,95529.48
2019-02-02T06:28:20.379Z,95525.48
2019-02-02T06:30:49.553Z,95529.63
2019-02-02T06:33:30.386Z,95524.81
2019-02-02T06:35:45.613Z,95524.75
2019-02-02T06:38:12.572Z,95530.70
2019-02-02T06:40:43.022Z,95532.06
2019-02-02T06:43:11.742Z,95522.38
2019-02-02T06:45:39.054Z,95513.14
2019-02-02T06:48:09.721Z,95524.52
2019-02-02T06:50:38.083Z,95536.72
2019-02-02T06:53:13.645Z,95532.67
2019-02-02T06:55:41.905Z,95543.73
2019-02-02T06:58:09.639Z,95531.79
2019-02-02T07:00:37.096Z,95524.48
2019-02-02T07:03:03.743Z,95514.63
2019-02-02T07:05:33.629Z,95523.52
2019-02-02T07:07:59.131Z,95528.61
2019-02-02T07:10:26.102Z,95531.34
2019-02-02T07:12:52.712Z,95528.16
2019-02-02T07:15:19.770Z,95538.91
2019-02-02T07:17:46.678Z,95548.44
2019-02-02T07:20:13.333Z,95529.19
2019-02-02T07:22:40.274Z,95533.91
2019-02-02T07:25:06.932Z,95539.65
2019-02-02T07:27:33.827Z,95542.78
2019-02-02T07:30:00.564Z,95537.91
2019-02-02T07:32:27.899Z,95530.91
2019-02-02T07:34:54.557Z,95535.80
2019-02-02T07:37:21.263Z,95536.66
2019-02-02T07:39:49.496Z,95554.06
2019-02-02T07:42:16.285Z,95552.30
2019-02-02T07:44:43.448Z,95547.56
2019-02-02T07:47:10.309Z,95549.70
2019-02-02T07:49:37.571Z,95563.16
2019-02-02T07:52:04.577Z,95557.53
2019-02-02T07:54:33.179Z,95559.88
2019-02-02T07:57:00.148Z,95566.08
2019-02-02T08:01:58.635Z,95558.86
2019-02-02T08:04:26.470Z,95565.25
2019-02-02T08:06:54.863Z,95564.34
2019-02-02T08:09:22.082Z,95557.23
2019-02-02T08:11:49.899Z,95570.95
2019-02-02T08:14:16.836Z,95567.62
2019-02-02T08:16:43.956Z,95567.03
2019-02-02T08:19:10.742Z,95559.13
2019-02-02T08:21:37.376Z,95558.75
2019-02-02T08:24:04.667Z,95566.09
2019-02-02T08:26:31.388Z,95573.41
2019-02-02T08:28:58.747Z,95575.55
2019-02-02T08:31:25.888Z,95569.47
2019-02-02T08:33:52.925Z,95567.89
2019-02-02T08:36:20.028Z,95570.94
2019-02-02T08:38:47.201Z,95567.07
2019-02-02T08:41:15.222Z,95563.72
2019-02-02T08:43:41.944Z,95561.20
2019-02-02T08:46:11.085Z,95569.45
2019-02-02T08:48:43.493Z,95570.45
2019-02-02T08:51:10.243Z,95576.00
2019-02-02T08:53:36.961Z,95575.09
2019-02-02T08:56:03.913Z,95566.97
2019-02-02T08:58:30.867Z,95576.62
2019-02-02T09:01:04.100Z,95586.41
2019-02-02T09:03:28.960Z,95590.06
2019-02-02T09:05:59.341Z,95579.19
2019-02-02T09:08:28.651Z,95573.50
2019-02-02T09:11:00.504Z,95569.12
2019-02-02T09:13:27.405Z,95584.50
2019-02-02T09:15:56.515Z,95572.84
2019-02-02T09:18:23.510Z,95580.52
2019-02-02T09:20:50.880Z,95586.05
2019-02-02T09:23:18.674Z,95599.81
2019-02-02T09:25:45.627Z,95599.46
2019-02-02T09:28:13.262Z,95592.18
2019-02-02T09:30:41.585Z,95604.06
2019-02-02T09:33:11.946Z,95621.07
2019-02-02T09:35:41.289Z,95602.47
2019-02-02T09:38:16.682Z,95617.78
2019-02-02T09:40:40.333Z,95621.89
2019-02-02T09:43:09.986Z,95620.89
2019-02-02T09:45:39.470Z,95619.26
2019-02-02T09:48:11.803Z,95607.70
2019-02-02T09:50:38.960Z,95598.17
2019-02-02T09:53:08.982Z,95616.22
2019-02-02T09:58:22.042Z,95609.74
2019-02-02T10:00:49.892Z,95623.58
2019-02-02T10:03:16.551Z,95631.36
2019-02-02T10:05:46.974Z,95626.59
2019-02-02T10:08:14.877Z,95624.89
2019-02-02T10:10:43.997Z,95623.86
2019-02-02T10:13:11.875Z,95625.06
2019-02-02T10:15:40.025Z,95629.91
2019-02-02T10:18:15.047Z,95643.75
2019-02-02T10:20:49.503Z,95626.84
2019-02-02T10:23:16.639Z,95617.53
2019-02-02T10:25:48.980Z,95633.02
2019-02-02T10:28:19.596Z,95637.62
2019-02-02T10:30:49.379Z,95637.36
2019-02-02T10:33:17.124Z,95635.95
2019-02-02T10:35:45.215Z,95641.94
2019-02-02T10:38:19.972Z,95639.16
2019-02-02T10:40:46.720Z,95636.05
2019-02-02T10:43:13.442Z,95630.67
2019-02-02T10:45:42.963Z,95642.13
2019-02-02T10:48:09.637Z,95658.22
2019-02-02T10:50:39.398Z,95657.88
2019-02-02T10:53:06.162Z,95655.70
2019-02-02T10:55:36.914Z,95651.67
2019-02-02T10:58:03.547Z,95655.13
2019-02-02T11:00:31.930Z,95660.77
2019-02-02T11:02:58.875Z,95660.47
2019-02-02T11:05:25.882Z,95665.44
2019-02-02T11:07:54.593Z,95667.63
2019-02-02T11:10:21.621Z,95664.25
2019-02-02T11:12:48.594Z,95669.72
2019-02-02T11:15:15.357Z,95667.63
2019-02-02T11:17:42.715Z,95671.30
2019-02-02T11:20:09.570Z,95672.41
2019-02-02T11:22:36.434Z,95688.91
2019-02-02T11:25:03.192Z,95682.14
2019-02-02T11:27:30.711Z,95677.38
2019-02-02T11:29:57.887Z,95672.74
2019-02-02T11:32:24.545Z,95663.80
2019-02-02T11:34:51.360Z,95661.02
2019-02-02T11:37:18.035Z,95672.96
2019-02-02T11:39:44.670Z,95675.03
2019-02-02T11:42:12.286Z,95683.08
2019-02-02T11:44:38.985Z,95704.56
2019-02-02T11:47:05.673Z,95702.09
2019-02-02T11:49:32.587Z,95697.82
2019-02-02T11:52:01.433Z,95693.52
2019-02-02T11:54:28.120Z,95682.29
2019-02-02T11:56:54.800Z,95673.61
2019-02-02T11:59:21.908Z,95666.59
2019-02-02T12:01:49.094Z,95669.95
2019-02-02T12:04:16.090Z,95665.95
2019-02-02T12:06:43.197Z,95679.54
2019-02-02T12:09:09.914Z,95676.95
2019-02-02T12:11:36.885Z,95670.36
2019-02-02T12:14:03.891Z,95685.05
2019-02-02T12:16:31.368Z,95682.08
2019-02-02T12:18:58.090Z,95663.81
2019-02-02T12:21:24.935Z,95660.90
2019-02-02T12:23:52.055Z,95648.13
2019-02-02T12:26:19.283Z,95649.84
2019-02-02T12:28:46.187Z,95633.53
2019-02-02T12:31:13.125Z,95637.76
2019-02-02T12:33:40.098Z,95638.17
2019-02-02T12:36:07.359Z,95642.53
2019-02-02T12:41:05.215Z,95654.04
2019-02-02T12:43:32.033Z,95644.09
2019-02-02T12:46:00.950Z,95654.95
2019-02-02T12:48:27.943Z,95646.73
2019-02-02T12:50:57.378Z,95646.77
2019-02-02T12:53:26.499Z,95652.34
2019-02-02T12:55:53.806Z,95666.63
2019-02-02T12:58:23.017Z,95663.25
2019-02-02T13:00:53.590Z,95665.28
2019-02-02T13:03:20.249Z,95670.64
2019-02-02T13:05:47.182Z,95679.59
2019-02-02T13:08:14.153Z,95686.66
2019-02-02T13:10:41.123Z,95682.33
2019-02-02T13:13:08.116Z,95676.89
2019-02-02T13:15:35.195Z,95676.69
2019-02-02T13:18:02.166Z,95675.70
2019-02-02T13:20:28.923Z,95669.95
2019-02-02T13:22:58.064Z,95671.05
2019-02-02T13:25:24.815Z,95670.07
2019-02-02T13:27:51.877Z,95662.46
2019-02-02T13:30:18.474Z,95662.50
2019-02-02T13:32:49.976Z,95667.70
2019-02-02T13:35:14.099Z,95671.21
2019-02-02T13:37:41.285Z,95670.53
2019-02-02T13:40:11.965Z,95683.94
2019-02-02T13:42:40.906Z,95677.88
2019-02-02T13:45:10.815Z,95679.80
2019-02-02T13:47:41.697Z,95686.41
2019-02-02T13:50:09.899Z,95688.80
2019-02-02T13:52:37.830Z,95688.19
2019-02-02T13:55:07.582Z,95689.10
2019-02-02T13:57:37.743Z,95684.91
2019-02-02T14:00:06.020Z,95682.23
2019-02-02T14:02:36.923Z,95678.94
2019-02-02T14:05:04.566Z,95688.42
2019-02-02T14:07:32.500Z,95689.49
2019-02-02T14:12:48.551Z,95704.11
2019-02-02T14:15:16.197Z,95703.79
2019-02-02T14:17:47.911Z,95710.41
2019-02-02T14:20:15.863Z,95712.70
2019-02-02T14:22:43.462Z,95716.91
2019-02-02T14:25:13.251Z,95725.98
2019-02-02T14:27:43.815Z,95729.45
2019-02-02T14:30:13.208Z,95727.98
2019-02-02T14:32:41.551Z,95737.08
2019-02-02T14:35:09.290Z,95741.02
2019-02-02T14:37:38.529Z,95752.09
2019-02-02T14:40:05.516Z,95755.15
2019-02-02T14:42:35.650Z,95765.26
2019-02-02T14:45:17.172Z,95764.78
2019-02-02T14:47:44.371Z,95766.89
2019-02-02T14:50:13.659Z,95762.89
2019-02-02T14:52:43.258Z,95769.38
2019-02-02T14:55:10.201Z,95766.17
2019-02-02T14:57:38.844Z,95769.92
2019-02-02T15:00:06.006Z,95757.44
2019-02-02T15:02:41.553Z,95755.32
2019-02-02T15:05:07.855Z,95746.56
2019-02-02T15:07:35.606Z,95753.48
2019-02-02T15:10:06.911Z,95754.81
2019-02-02T15:12:37.218Z,95754.02
2019-02-02T15:15:07.610Z,95755.09
2019-02-02T15:17:38.351Z,95753.50
2019-02-02T15:20:11.786Z,95759.36
2019-02-02T15:22:38.821Z,95766.77
2019-02-02T15:25:12.236Z,95760.92
2019-02-02T15:27:38.797Z,95768.08
2019-02-02T15:30:07.958Z,95771.25
2019-02-02T15:32:34.884Z,95779.23
2019-02-02T15:35:02.799Z,95777.31
2019-02-02T15:40:17.991Z,95771.70
2019-02-02T15:42:50.734Z,95774.60
2019-02-02T15:45:17.184Z,95778.81
2019-02-02T15:47:44.117Z,95789.62
2019-02-02T15:50:11.143Z,95792.27
2019-02-02T15:52:40.370Z,95793.03
2019-02-02T15:55:10.167Z,95796.97
2019-02-02T15:57:39.968Z,95799.83
2019-02-02T16:00:06.639Z,95798.80
2019-02-02T16:02:39.552Z,95803.27
2019-02-02T16:05:06.383Z,95803.78
2019-02-02T16:07:35.952Z,95809.87
2019-02-02T16:10:06.211Z,95806.17
2019-02-02T16:12:34.679Z,95807.20
2019-02-02T16:15:01.430Z,95811.09
2019-02-02T16:17:31.473Z,95815.48
2019-02-02T16:19:58.459Z,95814.44
2019-02-02T16:22:25.228Z,95816.52
2019-02-02T16:24:52.264Z,95811.95
2019-02-02T16:27:35.521Z,95814.59
2019-02-02T16:30:10.019Z,95808.53
2019-02-02T16:32:37.381Z,95804.70
2019-02-02T16:35:05.031Z,95807.70
2019-02-02T16:37:36.326Z,95807.81
2019-02-02T16:40:04.062Z,95811.19
2019-02-02T16:42:31.270Z,95813.70
2019-02-02T16:45:00.822Z,95826.16
2019-02-02T16:47:30.768Z,95834.41
2019-02-02T16:49:59.460Z,95839.44
2019-02-02T16:52:32.412Z,95839.66
2019-02-02T16:55:02.447Z,95844.30
2019-02-02T16:57:31.619Z,95850.38
2019-02-02T16:59:59.264Z,95849.24
2019-02-02T17:02:26.692Z,95853.42
2019-02-02T17:04:55.900Z,95859.42
2019-02-02T17:07:25.317Z,95865.91
2019-02-02T17:09:52.397Z,95867.99
2019-02-02T17:15:06.074Z,95875.53
2019-02-02T17:17:49.764Z,95882.97
2019-02-02T17:20:21.172Z,95885.78
2019-02-02T17:22:49.324Z,95886.96
2019-02-02T17:25:18.073Z,95880.94
2019-02-02T17:27:45.728Z,95884.14
2019-02-02T17:30:13.123Z,95887.66
2019-02-02T17:32:42.582Z,95888.18
2019-02-02T17:35:10.175Z,95889.73
2019-02-02T17:37:39.501Z,95885.15
2019-02-02T17:40:24.489Z,95891.39
2019-02-02T17:42:56.105Z,95881.28
2019-02-02T17:45:23.487Z,95883.27
2019-02-02T17:47:51.185Z,95879.77
2019-02-02T17:50:18.898Z,95876.77
2019-02-02T17:52:47.297Z,95883.12
2019-02-02T17:55:18.212Z,95894.42
2019-02-02T17:57:45.936Z,95899.14
2019-02-02T18:00:15.638Z,95896.02
2019-02-02T18:05:32.870Z,95903.15
2019-02-02T18:08:03.549Z,95911.59
2019-02-02T18:10:31.410Z,95910.92
2019-02-02T18:13:02.419Z,95904.82
2019-02-02T18:15:33.392Z,95905.03
2019-02-02T18:18:03.155Z,95907.42
2019-02-02T18:20:30.904Z,95904.08
2019-02-02T18:25:48.901Z,95907.63
2019-02-02T18:31:06.650Z,95899.14
2019-02-02T18:33:36.658Z,95899.31
2019-02-02T18:36:05.916Z,95893.34
2019-02-02T18:38:35.672Z,95884.84
2019-02-02T18:41:02.646Z,95883.88
2019-02-02T18:43:29.700Z,95880.14
2019-02-02T18:48:44.271Z,95872.67
2019-02-02T18:51:13.923Z,95872.79
2019-02-02T18:53:40.971Z,95869.45
2019-02-02T18:56:11.528Z,95874.95
2019-02-02T18:58:38.393Z,95871.48
2019-02-02T19:01:05.327Z,95865.19
2019-02-02T19:03:35.960Z,95870.16
2019-02-02T19:06:10.352Z,95864.66
2019-02-02T19:08:38.884Z,95863.39
2019-02-02T19:11:08.687Z,95871.96
2019-02-02T19:13:35.313Z,95867.48
2019-02-02T19:18:48.475Z,95870.25
2019-02-02T19:21:19.142Z,95859.20
2019-02-02T19:23:47.138Z,95855.56
2019-02-02T19:26:17.043Z,95855.72
2019-02-02T19:28:45.638Z,95854.10
2019-02-02T19:31:16.096Z,95851.77
2019-02-02T19:33:44.837Z,95861.12
2019-02-02T19:36:12.972Z,95852.16
2019-02-02T19:38:40.396Z,95846.21
2019-02-02T19:41:10.626Z,95842.93
2019-02-02T19:43:39.701Z,95840.19
2019-02-02T19:46:09.231Z,95843.39
2019-02-02T19:48:37.135Z,95841.72
2019-02-02T19:51:05.927Z,95839.74
2019-02-02T19:53:32.767Z,95840.15
2019-02-02T19:56:01.839Z,95843.17
2019-02-02T19:58:31.719Z,95840.31
2019-02-02T20:01:03.221Z,95846.92
2019-02-02T20:03:29.895Z,95849.81
2019-02-02T20:05:56.537Z,95850.98
2019-02-02T20:08:25.178Z,95841.72
2019-02-02T20:10:53.351Z,95843.79
2019-02-02T20:13:20.052Z,95842.47
2019-02-02T20:15:49.379Z,95832.84
2019-02-02T20:18:17.845Z,95824.21
2019-02-02T20:20:44.406Z,95833.73
2019-02-02T20:23:13.290Z,95830.28
2019-02-02T20:25:43.781Z,95824.36
2019-02-02T20:28:12.737Z,95833.33
2019-02-02T20:30:39.649Z,95829.01
2019-02-02T20:33:06.279Z,95826.80
2019-02-02T20:35:40.915Z,95830.70
2019-02-02T20:38:02.263Z,95832.75
2019-02-02T20:40:29.940Z,95828.13
2019-02-02T20:42:58.251Z,95826.33
2019-02-02T20:45:24.966Z,95822.27
2019-02-02T20:47:51.732Z,95827.69
2019-02-02T20:50:19.525Z,95821.05
2019-02-02T20:52:48.017Z,95820.58
2019-02-02T20:55:15.874Z,95815.95
2019-02-02T20:57:45.894Z,95821.42
2019-02-02T21:00:14.746Z,95811.20
2019-02-02T21:02:42.677Z,95804.39
2019-02-02T21:05:16.305Z,95827.47
2019-02-02T21:07:44.304Z,95832.34
2019-02-02T21:10:11.424Z,95827.55
2019-02-02T21:12:39.003Z,95816.66
2019-02-02T21:15:07.070Z,95808.66
2019-02-02T21:17:34.082Z,95831.59
2019-02-02T21:20:00.764Z,95837.47
2019-02-02T21:22:30.368Z,95825.40
2019-02-02T21:24:58.090Z,95815.20
2019-02-02T21:27:25.291Z,95808.54
2019-02-02T21:29:55.789Z,95831.99
2019-02-02T21:32:23.646Z,95826.59
2019-02-02T21:34:51.329Z,95840.37
2019-02-02T21:37:18.421Z,95866.98
2019-02-02T21:39:45.919Z,95855.32
2019-02-02T21:42:13.341Z,95829.33
2019-02-02T21:44:45.835Z,95804.78
2019-02-02T21:47:16.750Z,95823.65
2019-02-02T21:52:36.246Z,95842.34
2019-02-02T21:55:02.904Z,95823.86
2019-02-02T21:57:30.046Z,95791.35
2019-02-02T21:59:57.243Z,95796.56
2019-02-02T22:02:26.161Z,95806.70
2019-02-02T22:05:03.778Z,95808.64
2019-02-02T22:07:32.261Z,95809.53
2019-02-02T22:10:02.114Z,95809.23
2019-02-02T22:12:30.346Z,95816.14
2019-02-02T22:14:57.233Z,95815.93
2019-02-02T22:17:27.936Z,95801.13
2019-02-02T22:19:54.626Z,95795.88
2019-02-02T22:22:21.841Z,95816.33
2019-02-02T22:24:51.190Z,95826.87
2019-02-02T22:27:17.613Z,95826.34
2019-02-02T22:29:45.214Z,95818.58
2019-02-02T22:32:12.696Z,95812.19
2019-02-02T22:34:40.466Z,95810.08
2019-02-02T22:37:07.660Z,95819.15
2019-02-02T22:39:38.300Z,95821.05
2019-02-02T22:42:19.588Z,95825.55
2019-02-02T22:47:49.583Z,95822.14
2019-02-02T22:50:16.879Z,95836.52
2019-02-02T22:52:44.188Z,95836.48
2019-02-02T22:55:13.316Z,95827.77
2019-02-02T22:57:42.388Z,95825.16
2019-02-02T23:00:09.381Z,95810.23
2019-02-02T23:02:36.892Z,95806.12
2019-02-02T23:05:04.071Z,95804.54
2019-02-02T23:07:31.917Z,95803.17
2019-02-02T23:09:58.867Z,95807.49
2019-02-02T23:12:26.312Z,95807.36
2019-02-02T23:14:53.397Z,95800.92
2019-02-02T23:17:20.387Z,95802.78
2019-02-02T23:19:48.228Z,95804.30
2019-02-02T23:22:15.634Z,95798.13
2019-02-02T23:24:42.864Z,95801.39
2019-02-02T23:27:09.729Z,95807.16
2019-02-02T23:29:37.328Z,95801.56
2019-02-02T23:32:04.627Z,95806.69
2019-02-02T23:34:31.536Z,95798.70
2019-02-02T23:36:58.300Z,95799.72
2019-02-02T23:39:26.125Z,95795.23
2019-02-02T23:41:52.904Z,95800.82
2019-02-02T23:44:20.704Z,95803.55
2019-02-02T23:46:49.254Z,95786.19
2019-02-02T23:49:17.169Z,95781.11
2019-02-02T23:51:44.964Z,95781.39
2019-02-02T23:54:12.981Z,95783.74
2019-02-02T23:56:40.192Z,95768.89
